createdAt,value
2017-12-27T00:00:15.354Z,96048.78
2017-12-27T00:03:24.530Z,96036.83
2017-12-27T00:06:35.117Z,96033.19
2017-12-27T00:09:44.088Z,96029.64
2017-12-27T00:12:53.000Z,96016.72
2017-12-27T00:16:02.920Z,96009.48
2017-12-27T00:19:11.618Z,96007.89
2017-12-27T00:22:20.564Z,96005.63
2017-12-27T00:25:29.498Z,95997.78
2017-12-27T00:28:41.284Z,95994.61
2017-12-27T00:30:52.872Z,95977.47
2017-12-27T00:31:54.464Z,95970.86
2017-12-27T00:32:57.363Z,95972.59
2017-12-27T00:34:00.208Z,95977.29
2017-12-27T00:35:03.527Z,95965.55
2017-12-27T00:36:06.397Z,95968.09
2017-12-27T00:37:09.269Z,95969.72
2017-12-27T00:38:12.155Z,95967.34
2017-12-27T00:39:15.060Z,95962.42
2017-12-27T00:40:18.220Z,95960.32
2017-12-27T00:41:21.365Z,95962.84
2017-12-27T00:42:24.237Z,95952.86
2017-12-27T00:43:27.166Z,95950.84
2017-12-27T00:44:30.648Z,95952.20
2017-12-27T00:45:33.628Z,95950.95
2017-12-27T00:46:36.619Z,95947.89
2017-12-27T00:47:39.994Z,95938.86
2017-12-27T00:48:42.973Z,95939.61
2017-12-27T00:49:45.869Z,95929.93
2017-12-27T00:50:48.868Z,95941.40
2017-12-27T00:51:51.791Z,95933.13
2017-12-27T00:52:54.840Z,95927.83
2017-12-27T00:53:58.093Z,95924.73
2017-12-27T00:55:01.078Z,95927.16
2017-12-27T00:56:03.995Z,95926.73
2017-12-27T00:57:07.003Z,95921.50
2017-12-27T00:58:09.923Z,95917.75
2017-12-27T00:59:12.994Z,95907.99
2017-12-27T01:00:16.131Z,95910.66
2017-12-27T01:01:19.011Z,95918.73
2017-12-27T01:02:21.860Z,95917.75
2017-12-27T01:03:24.826Z,95918.21
2017-12-27T01:04:27.767Z,95922.68
2017-12-27T01:05:30.779Z,95916.89
2017-12-27T01:06:34.080Z,95915.55
2017-12-27T01:07:37.044Z,95920.53
2017-12-27T01:08:40.008Z,95904.68
2017-12-27T01:09:42.966Z,95905.97
2017-12-27T01:10:45.893Z,95909.94
2017-12-27T01:11:48.906Z,95900.64
2017-12-27T01:12:52.222Z,95894.96
2017-12-27T01:13:55.200Z,95898.70
2017-12-27T01:14:58.092Z,95882.20
2017-12-27T01:16:01.015Z,95881.64
2017-12-27T01:17:04.000Z,95872.02
2017-12-27T01:18:06.965Z,95880.29
2017-12-27T01:19:10.344Z,95874.09
2017-12-27T01:20:13.286Z,95873.16
2017-12-27T01:21:16.244Z,95858.83
2017-12-27T01:22:19.243Z,95853.77
2017-12-27T01:23:22.163Z,95846.31
2017-12-27T01:24:25.092Z,95843.55
2017-12-27T01:25:28.478Z,95847.02
2017-12-27T01:26:31.415Z,95856.28
2017-12-27T01:27:34.402Z,95858.03
2017-12-27T01:28:37.753Z,95839.12
2017-12-27T01:29:40.700Z,95835.82
2017-12-27T01:30:43.621Z,95838.58
2017-12-27T01:31:46.827Z,95831.23
2017-12-27T01:32:49.744Z,95839.71
2017-12-27T01:33:52.700Z,95836.77
2017-12-27T01:34:55.726Z,95851.25
2017-12-27T01:35:58.739Z,95848.63
2017-12-27T01:37:01.941Z,95846.04
2017-12-27T01:38:04.868Z,95834.36
2017-12-27T01:39:07.789Z,95839.12
2017-12-27T01:40:10.701Z,95836.90
2017-12-27T01:41:13.631Z,95838.05
2017-12-27T01:42:16.576Z,95832.00
2017-12-27T01:43:19.825Z,95825.63
2017-12-27T01:44:22.674Z,95821.20
2017-12-27T01:45:25.512Z,95822.59
2017-12-27T01:46:28.371Z,95820.59
2017-12-27T01:47:31.204Z,95822.06
2017-12-27T01:48:34.680Z,95814.22
2017-12-27T01:49:37.957Z,95812.22
2017-12-27T01:50:40.991Z,95812.00
2017-12-27T01:51:43.901Z,95808.08
2017-12-27T01:52:46.764Z,95802.00
2017-12-27T01:53:49.551Z,95795.27
2017-12-27T01:54:52.576Z,95805.55
2017-12-27T01:55:55.743Z,95800.03
2017-12-27T01:56:58.601Z,95793.25
2017-12-27T01:58:01.455Z,95795.54
2017-12-27T01:59:04.410Z,95794.67
2017-12-27T02:00:07.223Z,95791.65
2017-12-27T02:01:10.183Z,95782.84
2017-12-27T02:02:13.359Z,95778.52
2017-12-27T02:03:16.187Z,95773.60
2017-12-27T02:04:19.039Z,95765.17
2017-12-27T02:05:23.062Z,95760.05
2017-12-27T02:06:25.867Z,95770.49
2017-12-27T02:07:28.891Z,95764.71
2017-12-27T02:08:32.140Z,95754.91
2017-12-27T02:09:35.117Z,95761.63
2017-12-27T02:10:38.042Z,95750.86
2017-12-27T02:11:40.977Z,95746.32
2017-12-27T02:12:44.031Z,95745.89
2017-12-27T02:13:47.115Z,95745.42
2017-12-27T02:14:50.397Z,95743.97
2017-12-27T02:15:53.435Z,95738.13
2017-12-27T02:16:56.246Z,95735.38
2017-12-27T02:17:59.056Z,95734.56
2017-12-27T02:19:03.010Z,95731.36
2017-12-27T02:20:05.969Z,95731.38
2017-12-27T02:21:09.237Z,95723.98
2017-12-27T02:22:12.173Z,95723.77
2017-12-27T02:23:15.125Z,95714.02
2017-12-27T02:24:18.222Z,95713.36
2017-12-27T02:25:21.186Z,95701.53
2017-12-27T02:26:24.170Z,95705.94
2017-12-27T02:27:27.132Z,95701.94
2017-12-27T02:28:30.068Z,95697.08
2017-12-27T02:29:33.095Z,95696.43
2017-12-27T02:30:36.095Z,95685.33
2017-12-27T02:31:39.028Z,95679.09
2017-12-27T02:32:42.290Z,95679.92
2017-12-27T02:33:45.277Z,95671.00
2017-12-27T02:34:48.203Z,95659.77
2017-12-27T02:35:53.411Z,95656.91
2017-12-27T02:36:56.362Z,95658.86
2017-12-27T02:37:59.330Z,95654.14
2017-12-27T02:39:02.550Z,95646.69
2017-12-27T02:40:05.490Z,95646.64
2017-12-27T02:41:08.434Z,95647.72
2017-12-27T02:42:11.394Z,95646.95
2017-12-27T02:43:14.414Z,95634.10
2017-12-27T02:44:17.363Z,95640.05
2017-12-27T02:45:20.579Z,95621.84
2017-12-27T02:46:23.605Z,95625.50
2017-12-27T02:47:26.561Z,95630.16
2017-12-27T02:48:29.506Z,95616.82
2017-12-27T02:49:32.451Z,95622.42
2017-12-27T02:50:35.462Z,95616.92
2017-12-27T02:51:38.671Z,95610.86
2017-12-27T02:52:41.615Z,95598.28
2017-12-27T02:53:44.595Z,95597.03
2017-12-27T02:54:47.512Z,95590.88
2017-12-27T02:55:50.443Z,95591.91
2017-12-27T02:56:53.408Z,95592.50
2017-12-27T02:57:56.712Z,95588.59
2017-12-27T02:58:59.669Z,95581.08
2017-12-27T03:00:02.665Z,95575.91
2017-12-27T03:01:05.612Z,95576.45
2017-12-27T03:02:08.633Z,95570.34
2017-12-27T03:03:11.585Z,95568.28
2017-12-27T03:04:14.899Z,95566.87
2017-12-27T03:05:17.856Z,95569.23
2017-12-27T03:06:20.846Z,95577.58
2017-12-27T03:07:24.254Z,95554.08
2017-12-27T03:08:27.220Z,95553.16
2017-12-27T03:09:30.194Z,95556.02
2017-12-27T03:10:33.482Z,95568.27
2017-12-27T03:11:36.412Z,95559.02
2017-12-27T03:12:39.406Z,95556.33
2017-12-27T03:13:42.948Z,95550.03
2017-12-27T03:14:45.868Z,95551.76
2017-12-27T03:15:48.836Z,95558.79
2017-12-27T03:16:52.282Z,95528.86
2017-12-27T03:17:55.224Z,95537.99
2017-12-27T03:18:58.235Z,95540.49
2017-12-27T03:20:01.185Z,95542.13
2017-12-27T03:21:04.128Z,95541.80
2017-12-27T03:22:07.011Z,95532.88
2017-12-27T03:23:10.276Z,95535.22
2017-12-27T03:24:13.130Z,95531.22
2017-12-27T03:25:15.967Z,95542.13
2017-12-27T03:26:18.827Z,95536.74
2017-12-27T03:27:22.126Z,95532.33
2017-12-27T03:28:24.987Z,95525.83
2017-12-27T03:29:28.281Z,95537.13
2017-12-27T03:30:31.235Z,95538.32
2017-12-27T03:31:34.285Z,95527.55
2017-12-27T03:32:37.306Z,95522.81
2017-12-27T03:33:40.366Z,95523.41
2017-12-27T03:34:43.344Z,95519.57
2017-12-27T03:35:46.737Z,95513.91
2017-12-27T03:36:49.668Z,95516.05
2017-12-27T03:37:52.654Z,95503.84
2017-12-27T03:38:55.669Z,95502.63
2017-12-27T03:39:58.612Z,95509.05
2017-12-27T03:41:01.615Z,95506.91
2017-12-27T03:42:04.971Z,95504.06
2017-12-27T03:43:07.918Z,95506.32
2017-12-27T03:44:10.862Z,95501.00
2017-12-27T03:45:13.797Z,95502.23
2017-12-27T03:46:16.723Z,95498.94
2017-12-27T03:47:19.564Z,95491.20
2017-12-27T03:48:22.737Z,95497.63
2017-12-27T03:49:25.570Z,95499.69
2017-12-27T03:50:28.402Z,95494.82
2017-12-27T03:51:31.288Z,95498.18
2017-12-27T03:52:34.227Z,95488.02
2017-12-27T03:53:37.220Z,95489.30
2017-12-27T03:54:40.446Z,95477.89
2017-12-27T03:55:43.387Z,95494.36
2017-12-27T03:56:46.260Z,95487.42
2017-12-27T03:57:49.229Z,95482.08
2017-12-27T03:58:52.210Z,95467.56
2017-12-27T03:59:55.065Z,95460.56
2017-12-27T04:00:58.370Z,95456.91
2017-12-27T04:02:01.276Z,95460.13
2017-12-27T04:03:04.251Z,95445.52
2017-12-27T04:04:07.226Z,95446.33
2017-12-27T04:05:10.134Z,95446.77
2017-12-27T04:06:13.409Z,95450.32
2017-12-27T04:07:16.503Z,95448.38
2017-12-27T04:08:19.386Z,95455.25
2017-12-27T04:09:22.336Z,95433.73
2017-12-27T04:10:25.246Z,95443.22
2017-12-27T04:11:28.057Z,95448.91
2017-12-27T04:12:30.878Z,95438.19
2017-12-27T04:13:34.095Z,95435.23
2017-12-27T04:14:36.931Z,95423.39
2017-12-27T04:15:39.815Z,95418.72
2017-12-27T04:16:42.690Z,95421.73
2017-12-27T04:17:45.555Z,95411.98
2017-12-27T04:18:48.504Z,95406.27
2017-12-27T04:19:52.608Z,95408.53
2017-12-27T04:20:55.581Z,95405.23
2017-12-27T04:21:58.562Z,95404.79
2017-12-27T04:23:01.550Z,95396.22
2017-12-27T04:24:04.520Z,95394.07
2017-12-27T04:25:07.610Z,95405.86
2017-12-27T04:26:10.895Z,95397.30
2017-12-27T04:27:14.650Z,95394.00
2017-12-27T04:28:17.476Z,95386.76
2017-12-27T04:29:20.493Z,95389.17
2017-12-27T04:31:30.229Z,95376.68
2017-12-27T04:32:35.430Z,95388.11
2017-12-27T04:33:38.363Z,95401.62
2017-12-27T04:34:41.247Z,95387.42
2017-12-27T04:35:44.222Z,95370.33
2017-12-27T04:36:47.164Z,95364.55
2017-12-27T04:37:51.123Z,95359.20
2017-12-27T04:38:54.370Z,95354.42
2017-12-27T04:39:57.314Z,95351.13
2017-12-27T04:41:01.116Z,95371.81
2017-12-27T04:42:04.088Z,95366.96
2017-12-27T04:43:07.118Z,95348.51
2017-12-27T04:44:09.980Z,95342.95
2017-12-27T04:45:13.189Z,95343.75
2017-12-27T04:46:16.050Z,95338.61
2017-12-27T04:47:18.991Z,95339.05
2017-12-27T04:48:21.884Z,95354.30
2017-12-27T04:49:24.757Z,95350.28
2017-12-27T04:50:27.719Z,95345.59
2017-12-27T04:51:31.078Z,95339.06
2017-12-27T04:52:34.066Z,95331.54
2017-12-27T04:53:37.056Z,95320.27
2017-12-27T04:54:40.039Z,95338.57
2017-12-27T04:55:43.981Z,95301.45
2017-12-27T04:56:47.105Z,95306.76
2017-12-27T04:57:50.360Z,95307.39
2017-12-27T04:58:53.366Z,95301.30
2017-12-27T04:59:56.436Z,95298.09
2017-12-27T05:00:59.407Z,95287.09
2017-12-27T05:02:02.345Z,95291.39
2017-12-27T05:03:05.551Z,95298.73
2017-12-27T05:04:08.875Z,95283.79
2017-12-27T05:05:11.805Z,95289.72
2017-12-27T05:06:14.763Z,95293.31
2017-12-27T05:07:17.650Z,95292.95
2017-12-27T05:08:20.645Z,95278.58
2017-12-27T05:09:23.535Z,95276.72
2017-12-27T05:10:26.838Z,95271.83
2017-12-27T05:11:29.784Z,95272.66
2017-12-27T05:12:32.568Z,95268.31
2017-12-27T05:13:36.281Z,95275.80
2017-12-27T05:14:39.549Z,95284.44
2017-12-27T05:15:42.428Z,95275.80
2017-12-27T05:16:45.556Z,95272.80
2017-12-27T05:17:48.399Z,95268.56
2017-12-27T05:18:51.904Z,95268.79
2017-12-27T05:19:54.757Z,95269.57
2017-12-27T05:20:57.697Z,95265.54
2017-12-27T05:22:00.540Z,95270.27
2017-12-27T05:23:03.720Z,95274.02
2017-12-27T05:24:06.662Z,95275.28
2017-12-27T05:25:09.624Z,95265.59
2017-12-27T05:26:12.688Z,95259.45
2017-12-27T05:27:15.648Z,95261.71
2017-12-27T05:28:18.642Z,95273.56
2017-12-27T05:29:22.097Z,95268.23
2017-12-27T05:30:25.098Z,95269.08
2017-12-27T05:31:28.090Z,95259.53
2017-12-27T05:32:31.103Z,95271.61
2017-12-27T05:33:34.082Z,95262.16
2017-12-27T05:34:37.034Z,95266.05
2017-12-27T05:35:40.378Z,95271.66
2017-12-27T05:36:43.333Z,95267.17
2017-12-27T05:37:46.284Z,95262.59
2017-12-27T05:38:49.247Z,95267.44
2017-12-27T05:39:52.230Z,95262.17
2017-12-27T05:40:55.215Z,95266.45
2017-12-27T05:41:58.513Z,95255.27
2017-12-27T05:43:01.448Z,95261.29
2017-12-27T05:44:04.412Z,95253.44
2017-12-27T05:45:07.425Z,95261.16
2017-12-27T05:46:10.381Z,95244.80
2017-12-27T05:47:13.320Z,95253.81
2017-12-27T05:48:16.275Z,95244.67
2017-12-27T05:49:19.194Z,95244.83
2017-12-27T05:50:22.173Z,95248.79
2017-12-27T05:51:25.182Z,95241.97
2017-12-27T05:52:28.170Z,95249.58
2017-12-27T05:53:31.438Z,95242.48
2017-12-27T05:54:34.371Z,95241.31
2017-12-27T05:55:37.377Z,95253.55
2017-12-27T05:56:40.342Z,95248.89
2017-12-27T05:57:43.390Z,95235.16
2017-12-27T05:58:46.316Z,95237.84
2017-12-27T05:59:49.496Z,95236.35
2017-12-27T06:00:52.369Z,95235.38
2017-12-27T06:01:55.323Z,95232.84
2017-12-27T06:02:58.288Z,95228.80
2017-12-27T06:04:01.247Z,95235.34
2017-12-27T06:05:04.181Z,95233.80
2017-12-27T06:06:08.644Z,95236.28
2017-12-27T06:07:11.681Z,95235.34
2017-12-27T06:08:14.772Z,95230.92
2017-12-27T06:09:17.656Z,95248.73
2017-12-27T06:10:20.867Z,95236.22
2017-12-27T06:11:23.789Z,95235.41
2017-12-27T06:12:26.874Z,95234.27
2017-12-27T06:13:29.833Z,95225.94
2017-12-27T06:14:32.689Z,95239.20
2017-12-27T06:15:35.581Z,95234.09
2017-12-27T06:16:38.434Z,95243.30
2017-12-27T06:17:41.731Z,95244.69
2017-12-27T06:18:44.618Z,95239.51
2017-12-27T06:19:47.533Z,95238.69
2017-12-27T06:20:50.683Z,95241.92
2017-12-27T06:21:53.746Z,95243.81
2017-12-27T06:22:56.769Z,95246.07
2017-12-27T06:24:00.069Z,95251.31
2017-12-27T06:25:03.148Z,95244.80
2017-12-27T06:26:06.226Z,95233.55
2017-12-27T06:27:09.193Z,95245.84
2017-12-27T06:28:12.146Z,95251.68
2017-12-27T06:29:15.255Z,95259.27
2017-12-27T06:30:18.534Z,95244.41
2017-12-27T06:31:21.548Z,95249.49
2017-12-27T06:32:24.562Z,95242.24
2017-12-27T06:33:27.526Z,95252.45
2017-12-27T06:34:30.484Z,95249.87
2017-12-27T06:35:33.639Z,95254.38
2017-12-27T06:36:37.795Z,95242.12
2017-12-27T06:37:40.681Z,95243.14
2017-12-27T06:38:43.721Z,95243.77
2017-12-27T06:39:46.712Z,95255.38
2017-12-27T06:40:49.690Z,95242.95
2017-12-27T06:41:52.676Z,95230.34
2017-12-27T06:42:55.703Z,95233.14
2017-12-27T06:43:58.585Z,95230.19
2017-12-27T06:45:01.609Z,95239.97
2017-12-27T06:46:04.512Z,95238.63
2017-12-27T06:47:07.521Z,95231.51
2017-12-27T06:48:10.845Z,95228.22
2017-12-27T06:49:13.794Z,95231.13
2017-12-27T06:50:16.841Z,95232.25
2017-12-27T06:51:19.814Z,95235.69
2017-12-27T06:52:22.885Z,95224.89
2017-12-27T06:53:25.882Z,95227.66
2017-12-27T06:54:29.261Z,95228.00
2017-12-27T06:55:32.338Z,95216.11
2017-12-27T06:56:35.293Z,95218.22
2017-12-27T06:57:38.292Z,95222.33
2017-12-27T06:58:41.196Z,95221.44
2017-12-27T06:59:44.164Z,95216.02
2017-12-27T07:00:47.491Z,95214.00
2017-12-27T07:01:50.464Z,95216.48
2017-12-27T07:02:53.520Z,95221.37
2017-12-27T07:03:56.850Z,95212.95
2017-12-27T07:04:59.932Z,95208.47
2017-12-27T07:06:03.075Z,95211.37
2017-12-27T07:07:06.309Z,95208.36
2017-12-27T07:08:09.553Z,95212.20
2017-12-27T07:09:12.512Z,95220.20
2017-12-27T07:10:15.513Z,95213.08
2017-12-27T07:11:18.502Z,95220.42
2017-12-27T07:12:21.464Z,95205.27
2017-12-27T07:13:24.686Z,95207.23
2017-12-27T07:14:27.635Z,95205.13
2017-12-27T07:15:30.606Z,95205.59
2017-12-27T07:16:33.595Z,95198.87
2017-12-27T07:17:36.639Z,95203.23
2017-12-27T07:18:39.588Z,95189.28
2017-12-27T07:19:42.827Z,95202.80
2017-12-27T07:20:45.828Z,95197.20
2017-12-27T07:21:48.764Z,95192.94
2017-12-27T07:22:52.697Z,95188.69
2017-12-27T07:23:55.805Z,95194.81
2017-12-27T07:24:59.144Z,95193.84
2017-12-27T07:26:02.465Z,95193.13
2017-12-27T07:27:05.658Z,95189.70
2017-12-27T07:28:08.624Z,95195.84
2017-12-27T07:29:11.557Z,95194.77
2017-12-27T07:30:14.570Z,95185.52
2017-12-27T07:31:17.590Z,95183.55
2017-12-27T07:32:20.769Z,95186.27
2017-12-27T07:33:23.722Z,95190.09
2017-12-27T07:34:26.694Z,95188.59
2017-12-27T07:35:29.666Z,95185.97
2017-12-27T07:36:32.648Z,95185.06
2017-12-27T07:37:35.814Z,95186.03
2017-12-27T07:38:39.177Z,95190.84
2017-12-27T07:39:42.155Z,95190.85
2017-12-27T07:40:45.191Z,95190.98
2017-12-27T07:41:48.290Z,95185.20
2017-12-27T07:42:51.254Z,95189.05
2017-12-27T07:43:54.169Z,95185.44
2017-12-27T07:44:57.466Z,95187.80
2017-12-27T07:46:00.367Z,95180.70
2017-12-27T07:47:03.432Z,95180.26
2017-12-27T07:48:06.454Z,95192.72
2017-12-27T07:49:09.414Z,95182.46
2017-12-27T07:50:12.489Z,95187.02
2017-12-27T07:51:16.022Z,95175.23
2017-12-27T07:52:19.152Z,95177.66
2017-12-27T07:53:22.250Z,95177.49
2017-12-27T07:54:25.329Z,95172.99
2017-12-27T07:55:28.422Z,95185.08
2017-12-27T07:56:32.414Z,95181.77
2017-12-27T07:57:36.358Z,95173.44
2017-12-27T07:58:40.101Z,95173.59
2017-12-27T07:59:42.981Z,95168.26
2017-12-27T08:00:45.985Z,95159.56
2017-12-27T08:01:48.988Z,95165.28
2017-12-27T08:02:52.096Z,95166.40
2017-12-27T08:03:55.421Z,95159.35
2017-12-27T08:04:58.407Z,95157.68
2017-12-27T08:06:01.644Z,95169.67
2017-12-27T08:07:04.493Z,95158.44
2017-12-27T08:08:07.489Z,95158.07
2017-12-27T08:09:10.433Z,95161.30
2017-12-27T08:11:29.279Z,95165.19
2017-12-27T08:12:35.321Z,95158.77
2017-12-27T08:13:38.256Z,95154.55
2017-12-27T08:14:41.274Z,95143.00
2017-12-27T08:15:44.910Z,95164.92
2017-12-27T08:16:49.144Z,95157.48
2017-12-27T08:17:52.110Z,95145.46
2017-12-27T08:18:55.552Z,95149.30
2017-12-27T08:19:58.541Z,95144.80
2017-12-27T08:21:01.533Z,95145.33
2017-12-27T08:22:04.495Z,95151.84
2017-12-27T08:23:07.860Z,95151.78
2017-12-27T08:24:10.937Z,95136.98
2017-12-27T08:25:13.942Z,95137.80
2017-12-27T08:26:16.898Z,95139.45
2017-12-27T08:27:19.888Z,95126.79
2017-12-27T08:28:22.868Z,95139.55
2017-12-27T08:29:26.840Z,95134.13
2017-12-27T08:30:29.846Z,95134.45
2017-12-27T08:31:32.754Z,95135.27
2017-12-27T08:32:35.708Z,95125.27
2017-12-27T08:33:38.600Z,95126.70
2017-12-27T08:34:41.474Z,95127.52
2017-12-27T08:35:44.721Z,95128.13
2017-12-27T08:36:47.704Z,95130.91
2017-12-27T08:37:50.686Z,95122.73
2017-12-27T08:38:53.738Z,95116.80
2017-12-27T08:39:56.696Z,95112.94
2017-12-27T08:40:59.685Z,95112.22
2017-12-27T08:42:02.976Z,95127.68
2017-12-27T08:43:05.958Z,95122.10
2017-12-27T08:44:08.953Z,95120.77
2017-12-27T08:45:11.911Z,95128.41
2017-12-27T08:46:14.863Z,95112.89
2017-12-27T08:47:17.852Z,95128.63
2017-12-27T08:48:21.255Z,95148.47
2017-12-27T08:49:24.233Z,95132.09
2017-12-27T08:50:27.164Z,95112.64
2017-12-27T08:51:30.115Z,95104.48
2017-12-27T08:52:33.105Z,95109.11
2017-12-27T08:53:36.115Z,95127.88
2017-12-27T08:54:41.526Z,95118.58
2017-12-27T08:55:44.573Z,95112.12
2017-12-27T08:56:47.570Z,95123.37
2017-12-27T08:57:50.533Z,95112.34
2017-12-27T08:58:53.438Z,95114.30
2017-12-27T08:59:56.387Z,95107.31
2017-12-27T09:00:59.566Z,95105.44
2017-12-27T09:02:02.462Z,95111.52
2017-12-27T09:03:05.422Z,95120.67
2017-12-27T09:04:08.402Z,95099.85
2017-12-27T09:05:11.364Z,95106.08
2017-12-27T09:06:14.369Z,95107.81
2017-12-27T09:07:17.801Z,95103.98
2017-12-27T09:08:21.172Z,95104.28
2017-12-27T09:09:24.140Z,95107.85
2017-12-27T09:10:27.112Z,95118.05
2017-12-27T09:11:30.121Z,95112.39
2017-12-27T09:12:33.100Z,95109.48
2017-12-27T09:13:36.292Z,95097.52
2017-12-27T09:14:39.309Z,95091.74
2017-12-27T09:15:42.283Z,95096.58
2017-12-27T09:16:45.247Z,95093.32
2017-12-27T09:17:48.177Z,95095.53
2017-12-27T09:18:51.506Z,95095.94
2017-12-27T09:19:54.546Z,95097.22
2017-12-27T09:20:57.545Z,95092.34
2017-12-27T09:22:00.582Z,95103.00
2017-12-27T09:23:03.593Z,95094.37
2017-12-27T09:24:06.591Z,95101.08
2017-12-27T09:25:09.654Z,95104.91
2017-12-27T09:26:12.621Z,95113.06
2017-12-27T09:27:15.611Z,95094.92
2017-12-27T09:28:18.598Z,95101.80
2017-12-27T09:29:22.960Z,95099.17
2017-12-27T09:30:26.317Z,95100.05
2017-12-27T09:31:29.299Z,95100.30
2017-12-27T09:32:32.601Z,95107.21
2017-12-27T09:33:35.725Z,95096.42
2017-12-27T09:34:38.723Z,95106.01
2017-12-27T09:35:41.643Z,95104.53
2017-12-27T09:36:45.045Z,95105.48
2017-12-27T09:37:47.898Z,95102.48
2017-12-27T09:38:51.278Z,95104.95
2017-12-27T09:39:54.753Z,95101.38
2017-12-27T09:40:58.207Z,95102.78
2017-12-27T09:42:01.177Z,95097.41
2017-12-27T09:43:04.493Z,95104.20
2017-12-27T09:44:07.596Z,95098.45
2017-12-27T09:45:10.544Z,95100.16
2017-12-27T09:46:13.603Z,95105.26
2017-12-27T09:47:16.621Z,95103.30
2017-12-27T09:48:19.584Z,95110.59
2017-12-27T09:49:22.833Z,95093.95
2017-12-27T09:50:26.441Z,95101.36
2017-12-27T09:51:29.392Z,95116.86
2017-12-27T09:52:32.597Z,95104.20
2017-12-27T09:53:35.550Z,95097.27
2017-12-27T09:54:38.688Z,95089.75
2017-12-27T09:55:41.570Z,95088.33
2017-12-27T09:56:44.490Z,95091.19
2017-12-27T09:57:47.504Z,95091.33
2017-12-27T09:58:50.607Z,95085.55
2017-12-27T09:59:53.607Z,95088.25
2017-12-27T10:00:56.744Z,95085.55
2017-12-27T10:01:59.715Z,95094.02
2017-12-27T10:03:02.756Z,95086.30
2017-12-27T10:04:05.764Z,95082.92
2017-12-27T10:05:09.353Z,95077.51
2017-12-27T10:06:12.450Z,95072.31
2017-12-27T10:07:15.463Z,95085.39
2017-12-27T10:08:18.455Z,95080.77
2017-12-27T10:09:21.403Z,95082.05
2017-12-27T10:10:24.319Z,95072.34
2017-12-27T10:11:27.909Z,95078.59
2017-12-27T10:12:30.865Z,95076.53
2017-12-27T10:13:33.865Z,95080.88
2017-12-27T10:14:36.951Z,95088.76
2017-12-27T10:15:39.939Z,95090.75
2017-12-27T10:16:42.966Z,95079.11
2017-12-27T10:17:46.569Z,95077.09
2017-12-27T10:18:49.562Z,95078.53
2017-12-27T10:19:53.568Z,95067.77
2017-12-27T10:20:56.890Z,95077.55
2017-12-27T10:21:59.914Z,95079.88
2017-12-27T10:23:02.968Z,95076.05
2017-12-27T10:24:06.207Z,95073.89
2017-12-27T10:25:09.185Z,95066.04
2017-12-27T10:26:12.184Z,95074.17
2017-12-27T10:27:15.679Z,95074.31
2017-12-27T10:28:18.617Z,95073.34
2017-12-27T10:29:21.537Z,95074.57
2017-12-27T10:30:25.876Z,95074.91
2017-12-27T10:31:28.945Z,95081.98
2017-12-27T10:32:32.194Z,95066.27
2017-12-27T10:33:35.178Z,95063.80
2017-12-27T10:34:38.423Z,95061.27
2017-12-27T10:35:41.405Z,95055.55
2017-12-27T10:36:44.835Z,95069.66
2017-12-27T10:37:47.965Z,95056.35
2017-12-27T10:38:50.947Z,95061.09
2017-12-27T10:39:55.156Z,95061.33
2017-12-27T10:40:59.171Z,95061.19
2017-12-27T10:42:02.943Z,95065.31
2017-12-27T10:43:06.864Z,95059.91
2017-12-27T10:44:10.048Z,95052.56
2017-12-27T10:45:13.209Z,95058.64
2017-12-27T10:47:32.148Z,95046.14
2017-12-27T10:48:35.923Z,95047.11
2017-12-27T10:49:39.390Z,95041.20
2017-12-27T10:50:42.866Z,95034.95
2017-12-27T10:51:45.888Z,95036.16
2017-12-27T10:52:49.077Z,95036.52
2017-12-27T10:53:52.120Z,95040.66
2017-12-27T10:54:55.349Z,95021.86
2017-12-27T10:55:58.962Z,95023.35
2017-12-27T10:57:02.059Z,95029.36
2017-12-27T10:58:05.071Z,95033.78
2017-12-27T10:59:08.266Z,95006.45
2017-12-27T11:00:11.301Z,95022.80
2017-12-27T11:01:14.519Z,95019.05
2017-12-27T11:02:18.112Z,95026.59
2017-12-27T11:03:21.374Z,95023.66
2017-12-27T11:04:24.413Z,95019.48
2017-12-27T11:05:27.629Z,95016.11
2017-12-27T11:06:30.617Z,95014.38
2017-12-27T11:07:34.439Z,95006.04
2017-12-27T11:08:38.022Z,95031.05
2017-12-27T11:09:41.164Z,95008.98
2017-12-27T11:10:44.194Z,95030.18
2017-12-27T11:11:47.207Z,95012.03
2017-12-27T11:12:50.160Z,95018.61
2017-12-27T11:13:53.290Z,95010.34
2017-12-27T11:14:56.727Z,95021.17
2017-12-27T11:15:59.753Z,95029.81
2017-12-27T11:17:05.354Z,95009.64
2017-12-27T11:18:08.994Z,95006.22
2017-12-27T11:19:12.096Z,95011.48
2017-12-27T11:20:15.959Z,95015.48
2017-12-27T11:21:19.324Z,95008.98
2017-12-27T11:22:22.304Z,95006.94
2017-12-27T11:23:25.254Z,95008.49
2017-12-27T11:24:28.321Z,94999.59
2017-12-27T11:25:31.306Z,94998.67
2017-12-27T11:26:34.374Z,95003.13
2017-12-27T11:27:37.837Z,95009.90
2017-12-27T11:28:40.855Z,94996.19
2017-12-27T11:29:43.959Z,94994.11
2017-12-27T11:30:46.914Z,94996.30
2017-12-27T11:31:49.817Z,94999.41
2017-12-27T11:32:52.930Z,95013.97
2017-12-27T11:35:22.140Z,95005.23
2017-12-27T11:36:25.224Z,94990.73
2017-12-27T11:37:29.124Z,94997.14
2017-12-27T11:38:32.382Z,95001.05
2017-12-27T11:39:35.479Z,95005.23
2017-12-27T11:40:39.016Z,94999.36
2017-12-27T11:41:42.149Z,94987.77
2017-12-27T11:42:45.187Z,94990.94
2017-12-27T11:43:48.311Z,95000.05
2017-12-27T11:44:51.471Z,94989.27
2017-12-27T11:45:54.718Z,94993.61
2017-12-27T11:46:58.157Z,94994.25
2017-12-27T11:48:01.054Z,94985.50
2017-12-27T11:49:04.236Z,94973.13
2017-12-27T11:51:25.004Z,94975.52
2017-12-27T11:52:28.072Z,94976.23
2017-12-27T11:53:31.381Z,94974.07
2017-12-27T11:54:34.432Z,94975.45
2017-12-27T11:55:37.525Z,94968.92
2017-12-27T11:56:40.675Z,94981.16
2017-12-27T11:57:43.848Z,94981.43
2017-12-27T11:58:46.825Z,94974.80
2017-12-27T11:59:50.308Z,94970.83
2017-12-27T12:00:53.765Z,94980.92
2017-12-27T12:01:57.235Z,94969.11
2017-12-27T12:03:00.337Z,94973.95
2017-12-27T12:04:04.282Z,94970.86
2017-12-27T12:05:07.719Z,94976.45
2017-12-27T12:06:11.227Z,94972.41
2017-12-27T12:07:14.368Z,94976.39
2017-12-27T12:08:17.444Z,94971.08
2017-12-27T12:09:20.685Z,94967.51
2017-12-27T12:10:23.957Z,94966.41
2017-12-27T12:11:27.099Z,94971.39
2017-12-27T12:12:30.592Z,94968.51
2017-12-27T12:13:33.828Z,94968.03
2017-12-27T12:14:36.862Z,94969.38
2017-12-27T12:15:39.982Z,94961.12
2017-12-27T12:16:43.035Z,94962.02
2017-12-27T12:17:45.949Z,94954.45
2017-12-27T12:18:49.463Z,94960.73
2017-12-27T12:19:52.428Z,94955.84
2017-12-27T12:20:55.364Z,94960.98
2017-12-27T12:21:59.164Z,94951.91
2017-12-27T12:23:02.717Z,94947.72
2017-12-27T12:24:05.778Z,94947.85
2017-12-27T12:25:09.379Z,94954.30
2017-12-27T12:26:12.648Z,94955.56
2017-12-27T12:27:15.801Z,94965.22
2017-12-27T12:28:19.615Z,94959.88
2017-12-27T12:29:23.302Z,94967.05
2017-12-27T12:30:26.584Z,94951.73
2017-12-27T12:31:29.903Z,94952.86
2017-12-27T12:32:32.907Z,94952.80
2017-12-27T12:33:36.065Z,94948.75
2017-12-27T12:34:39.071Z,94953.88
2017-12-27T12:35:42.433Z,94951.79
2017-12-27T12:36:45.713Z,94949.86
2017-12-27T12:37:49.062Z,94951.17
2017-12-27T12:38:52.630Z,94947.91
2017-12-27T12:39:55.714Z,94959.63
2017-12-27T12:40:59.281Z,94947.80
2017-12-27T12:42:02.477Z,94951.03
2017-12-27T12:43:05.666Z,94940.01
2017-12-27T12:44:09.223Z,94945.57
2017-12-27T12:45:12.248Z,94936.09
2017-12-27T12:46:16.135Z,94940.20
2017-12-27T12:47:19.271Z,94939.44